createdAt,value
2023-05-03T00:00:39.059Z,2.9
2023-05-03T00:03:39.064Z,2.8
2023-05-03T00:06:39.102Z,2.8
2023-05-03T00:09:39.077Z,2.8
2023-05-03T00:12:39.076Z,2.8
2023-05-03T00:15:39.087Z,2.8
2023-05-03T00:18:39.085Z,2.8
2023-05-03T00:21:39.109Z,2.8
2023-05-03T00:24:39.094Z,2.7
2023-05-03T00:27:39.105Z,2.7
2023-05-03T00:30:39.099Z,2.7
2023-05-03T00:33:39.101Z,2.7
2023-05-03T00:36:39.104Z,2.6
2023-05-03T00:39:39.121Z,2.6
2023-05-03T00:42:39.127Z,2.5
2023-05-03T00:45:39.126Z,2.5
2023-05-03T00:48:39.119Z,2.4
2023-05-03T00:51:39.128Z,2.4
2023-05-03T00:54:39.134Z,2.3
2023-05-03T00:57:39.133Z,2.3
2023-05-03T01:00:39.142Z,2.3
2023-05-03T01:03:39.197Z,2.2
2023-05-03T01:06:39.217Z,2.1
2023-05-03T01:09:39.152Z,2.1
2023-05-03T01:12:39.159Z,2
2023-05-03T01:15:39.168Z,2
2023-05-03T01:18:39.167Z,2
2023-05-03T01:21:39.175Z,2
2023-05-03T01:24:39.182Z,2
2023-05-03T01:27:39.197Z,2
2023-05-03T01:30:39.178Z,2
2023-05-03T01:33:39.187Z,2
2023-05-03T01:36:39.194Z,1.9
2023-05-03T01:39:39.205Z,1.9
2023-05-03T01:42:39.315Z,1.9
2023-05-03T01:45:39.232Z,1.9
2023-05-03T01:48:39.222Z,1.9
2023-05-03T01:51:39.225Z,1.9
2023-05-03T01:54:39.229Z,1.8
2023-05-03T01:57:39.230Z,1.8
2023-05-03T02:00:39.234Z,1.8
2023-05-03T02:03:39.240Z,1.7
2023-05-03T02:06:39.277Z,1.7
2023-05-03T02:09:39.254Z,1.7
2023-05-03T02:12:39.244Z,1.7
2023-05-03T02:15:39.260Z,1.7
2023-05-03T02:18:39.256Z,1.6
2023-05-03T02:21:39.259Z,1.6
2023-05-03T02:24:39.267Z,1.5
2023-05-03T02:27:39.273Z,1.5
2023-05-03T02:30:39.305Z,1.4
2023-05-03T02:33:39.283Z,1.3
2023-05-03T02:36:39.312Z,1.3
2023-05-03T02:39:39.277Z,1.2
2023-05-03T02:42:39.298Z,1.2
2023-05-03T02:45:39.290Z,1.2
2023-05-03T02:48:39.293Z,1.2
2023-05-03T02:51:39.303Z,1.2
2023-05-03T02:54:39.298Z,1.2
2023-05-03T02:57:40.300Z,1.3
2023-05-03T03:00:39.307Z,1.3
2023-05-03T03:03:39.331Z,1.3
2023-05-03T03:09:39.530Z,1.5
2023-05-03T03:12:39.368Z,1.6
2023-05-03T03:15:39.332Z,1.8
2023-05-03T03:18:39.329Z,1.9
2023-05-03T03:21:39.356Z,2
2023-05-03T03:24:39.340Z,2.1
2023-05-03T03:27:39.903Z,2.2
2023-05-03T03:30:39.349Z,2.3
2023-05-03T03:33:39.352Z,2.3
2023-05-03T03:36:39.366Z,2.4
2023-05-03T03:39:39.364Z,2.5
2023-05-03T03:42:39.368Z,2.5
2023-05-03T03:45:39.362Z,2.6
2023-05-03T03:48:39.367Z,2.6
2023-05-03T03:51:39.358Z,2.7
2023-05-03T03:54:39.377Z,2.8
2023-05-03T03:57:39.371Z,2.8
2023-05-03T04:00:39.375Z,2.8
2023-05-03T04:03:39.430Z,2.8
2023-05-03T04:06:39.410Z,2.9
2023-05-03T04:09:39.382Z,2.9
2023-05-03T04:12:39.385Z,3
2023-05-03T04:15:39.389Z,3.1
2023-05-03T04:18:39.390Z,3.1
2023-05-03T04:21:39.390Z,3.2
2023-05-03T04:24:39.394Z,3.3
2023-05-03T04:27:39.390Z,3.4
2023-05-03T04:30:39.468Z,3.5
2023-05-03T04:33:39.415Z,3.7
2023-05-03T04:36:39.417Z,3.8
2023-05-03T04:39:39.437Z,3.9
2023-05-03T04:42:39.474Z,4
2023-05-03T04:45:39.477Z,4.1
2023-05-03T04:48:39.469Z,4.2
2023-05-03T04:51:39.489Z,4.4
2023-05-03T04:54:39.492Z,4.5
2023-05-03T04:57:39.494Z,4.6
2023-05-03T05:00:39.500Z,4.7
2023-05-03T05:03:39.600Z,4.8
2023-05-03T05:06:39.554Z,4.9
2023-05-03T05:09:39.552Z,5
2023-05-03T05:12:39.532Z,5.1
2023-05-03T05:15:39.522Z,5.2
2023-05-03T05:18:39.527Z,5.2
2023-05-03T05:21:39.527Z,5.1
2023-05-03T05:24:39.532Z,5
2023-05-03T05:27:39.533Z,5
2023-05-03T05:30:39.538Z,5
2023-05-03T05:33:39.544Z,5
2023-05-03T05:36:39.546Z,5
2023-05-03T05:39:39.552Z,5.1
2023-05-03T05:42:39.556Z,5.3
2023-05-03T05:45:39.657Z,5.6
2023-05-03T05:48:39.561Z,6
2023-05-03T05:51:39.562Z,6.5
2023-05-03T05:54:39.574Z,6.9
2023-05-03T05:57:39.574Z,7.4
2023-05-03T06:00:39.591Z,7.8
2023-05-03T06:03:39.590Z,8.3
2023-05-03T06:06:39.823Z,8.8
2023-05-03T06:09:39.602Z,9.3
2023-05-03T06:12:39.600Z,9.7
2023-05-03T06:15:39.607Z,10.1
2023-05-03T06:18:39.606Z,10.4
2023-05-03T06:21:39.638Z,10.6
2023-05-03T06:24:39.624Z,10.9
2023-05-03T06:27:39.636Z,11.2
2023-05-03T06:30:39.671Z,11.5
2023-05-03T06:33:39.637Z,11.8
2023-05-03T06:36:39.655Z,12
2023-05-03T06:39:39.643Z,12
2023-05-03T06:42:39.660Z,11.9
2023-05-03T06:45:39.666Z,11.9
2023-05-03T06:48:39.677Z,12
2023-05-03T06:51:39.661Z,12.1
2023-05-03T06:54:39.660Z,12.3
2023-05-03T06:57:39.668Z,12.6
2023-05-03T07:00:39.671Z,12.5
2023-05-03T07:03:41.725Z,12.8
2023-05-03T07:06:48.646Z,13.2
2023-05-03T07:09:43.423Z,13.5
2023-05-03T07:12:39.705Z,12.9
2023-05-03T07:15:39.704Z,12.3
2023-05-03T07:18:39.705Z,12.1
2023-05-03T07:21:39.699Z,11.9
2023-05-03T07:24:39.745Z,11.3
2023-05-03T07:27:39.715Z,11
2023-05-03T07:30:39.738Z,10.6
2023-05-03T07:33:39.803Z,10.2
2023-05-03T07:36:39.771Z,10
2023-05-03T07:39:39.741Z,10
2023-05-03T07:42:39.742Z,10
2023-05-03T07:45:39.753Z,10.3
2023-05-03T07:48:39.752Z,10.2
2023-05-03T07:51:39.770Z,10.2
2023-05-03T07:54:39.762Z,10.2
2023-05-03T07:57:39.766Z,10.5
2023-05-03T08:00:39.776Z,10.9
2023-05-03T08:03:39.971Z,11.3
2023-05-03T08:06:39.795Z,11.5
2023-05-03T08:09:39.780Z,11.9
2023-05-03T08:12:39.805Z,12.6
2023-05-03T08:15:39.830Z,12.4
2023-05-03T08:18:39.813Z,12.3
2023-05-03T08:21:39.806Z,12.1
2023-05-03T08:24:39.813Z,12.2
2023-05-03T08:27:39.824Z,13.2
2023-05-03T08:30:39.818Z,14.6
2023-05-03T08:33:39.816Z,15.4
2023-05-03T08:36:39.822Z,15.6
2023-05-03T08:39:39.831Z,15.3
2023-05-03T08:42:39.829Z,15
2023-05-03T08:45:39.826Z,14.7
2023-05-03T08:48:39.851Z,14
2023-05-03T08:51:39.838Z,13.6
2023-05-03T08:54:39.848Z,13.4
2023-05-03T08:57:39.844Z,13.3
2023-05-03T09:00:39.848Z,12.9
2023-05-03T09:03:39.954Z,12.8
2023-05-03T09:06:39.871Z,12.9
2023-05-03T09:09:39.858Z,12.6
2023-05-03T09:12:39.866Z,12.1
2023-05-03T09:15:39.876Z,12
2023-05-03T09:18:39.863Z,12.5
2023-05-03T09:21:39.868Z,13.6
2023-05-03T09:24:39.879Z,14.5
2023-05-03T09:27:39.877Z,15.3
2023-05-03T09:30:39.884Z,15.8
2023-05-03T09:33:39.906Z,16.4
2023-05-03T09:36:39.907Z,16.7
2023-05-03T09:39:39.910Z,16.9
2023-05-03T09:42:39.916Z,17.2
2023-05-03T09:45:39.930Z,17.8
2023-05-03T09:48:39.940Z,18.5
2023-05-03T09:51:39.932Z,18.9
2023-05-03T09:54:39.958Z,18.7
2023-05-03T09:57:39.940Z,17.9
2023-05-03T10:00:39.948Z,16.9
2023-05-03T10:03:39.968Z,16.4
2023-05-03T10:06:39.988Z,16.2
2023-05-03T10:09:39.972Z,16.3
2023-05-03T10:12:39.965Z,16.7
2023-05-03T10:15:39.991Z,16.8
2023-05-03T10:18:39.974Z,17
2023-05-03T10:21:39.986Z,17.2
2023-05-03T10:24:39.998Z,17.4
2023-05-03T10:27:39.993Z,17.9
2023-05-03T10:30:40.000Z,18
2023-05-03T10:33:39.994Z,18.2
2023-05-03T10:36:49.258Z,18.3
2023-05-03T10:39:39.995Z,18.6
2023-05-03T10:42:40.004Z,18.6
2023-05-03T10:45:39.998Z,18.4
2023-05-03T10:48:40.007Z,17.8
2023-05-03T10:51:40.022Z,17.5
2023-05-03T10:54:40.023Z,16.7
2023-05-03T10:57:40.517Z,16.6
2023-05-03T11:00:40.043Z,16.6
2023-05-03T11:03:40.027Z,16.4
2023-05-03T11:06:40.108Z,16.5
2023-05-03T11:09:40.035Z,16.4
2023-05-03T11:12:40.038Z,16.5
2023-05-03T11:15:40.049Z,16.6
2023-05-03T11:18:40.054Z,16.9
2023-05-03T11:21:40.065Z,16.9
2023-05-03T11:24:40.079Z,17.1
2023-05-03T11:27:40.058Z,17.3
2023-05-03T11:30:40.065Z,17.2
2023-05-03T11:33:40.072Z,16.8
2023-05-03T11:36:40.083Z,16.6
2023-05-03T11:39:40.090Z,16.6
2023-05-03T11:42:40.090Z,16.6
2023-05-03T11:45:40.085Z,16.6
2023-05-03T11:48:40.101Z,16.5
2023-05-03T11:51:40.101Z,16.3
2023-05-03T11:54:40.094Z,16.3
2023-05-03T11:57:40.122Z,16.4
2023-05-03T12:00:40.113Z,16.7
2023-05-03T12:03:40.329Z,17
2023-05-03T12:06:40.902Z,16.8
2023-05-03T12:09:41.164Z,16.7
2023-05-03T12:12:42.338Z,16.4
2023-05-03T12:15:40.678Z,16.2
2023-05-03T12:18:40.555Z,16.3
2023-05-03T12:21:41.886Z,16.4
2023-05-03T12:24:40.248Z,16.4
2023-05-03T12:27:40.816Z,16.4
2023-05-03T12:30:40.852Z,16.5
2023-05-03T12:33:43.230Z,16.5
2023-05-03T12:36:42.328Z,16.2
2023-05-03T12:39:40.698Z,16.1
2023-05-03T12:42:43.039Z,16
2023-05-03T12:45:41.239Z,16
2023-05-03T12:48:40.428Z,16
2023-05-03T12:51:42.439Z,15.9
2023-05-03T12:54:42.041Z,15.8
2023-05-03T12:57:41.471Z,15.8
2023-05-03T13:00:46.475Z,15.8
2023-05-03T13:03:43.949Z,15.8
2023-05-03T13:06:43.042Z,15.8
2023-05-03T13:12:40.230Z,15.8
2023-05-03T13:15:40.230Z,15.8
2023-05-03T13:18:40.247Z,15.8
2023-05-03T13:21:40.241Z,15.6
2023-05-03T13:24:40.243Z,15.6
2023-05-03T13:27:40.244Z,15.5
2023-05-03T13:30:40.256Z,15.4
2023-05-03T13:33:40.259Z,15.4
2023-05-03T13:36:40.262Z,15.4
2023-05-03T13:39:40.265Z,15.4
2023-05-03T13:42:40.262Z,15.4
2023-05-03T13:45:40.268Z,15.4
2023-05-03T13:48:40.324Z,15.3
2023-05-03T13:51:40.290Z,15.4
2023-05-03T13:54:40.276Z,15.5
2023-05-03T13:57:40.298Z,15.6
2023-05-03T14:00:40.310Z,15.6
2023-05-03T14:03:40.342Z,15.6
2023-05-03T14:06:41.570Z,15.6
2023-05-03T14:09:41.160Z,15.6
2023-05-03T14:12:40.350Z,15.5
2023-05-03T14:15:40.320Z,15.5
2023-05-03T14:18:40.403Z,15.5
2023-05-03T14:21:40.335Z,15.5
2023-05-03T14:24:40.329Z,15.4
2023-05-03T14:27:40.338Z,15.3
2023-05-03T14:30:40.350Z,15.2
2023-05-03T14:33:40.345Z,15.2
2023-05-03T14:36:40.365Z,15.3
2023-05-03T14:39:40.346Z,15.3
2023-05-03T14:42:40.365Z,15.3
2023-05-03T14:48:40.358Z,15.1
2023-05-03T14:51:41.821Z,15
2023-05-03T14:54:40.363Z,15
2023-05-03T14:57:40.382Z,15.1
2023-05-03T15:00:40.409Z,15.2
2023-05-03T15:03:40.389Z,15.2
2023-05-03T15:06:40.389Z,15.1
2023-05-03T15:09:40.397Z,15
2023-05-03T15:12:40.423Z,15
2023-05-03T15:15:40.393Z,15
2023-05-03T15:18:40.407Z,15
2023-05-03T15:21:40.411Z,15.1
2023-05-03T15:24:40.412Z,15
2023-05-03T15:27:40.432Z,15
2023-05-03T15:30:40.433Z,14.9
2023-05-03T15:33:40.425Z,14.9
2023-05-03T15:36:40.460Z,15
2023-05-03T15:39:40.440Z,14.8
2023-05-03T15:42:40.443Z,14.7
2023-05-03T15:45:40.452Z,14.7
2023-05-03T15:48:40.450Z,14.8
2023-05-03T15:51:40.505Z,14.8
2023-05-03T15:54:40.453Z,14.8
2023-05-03T15:57:40.457Z,14.8
2023-05-03T16:00:40.475Z,14.8
2023-05-03T16:03:40.476Z,14.7
2023-05-03T16:06:40.477Z,14.6
2023-05-03T16:09:40.479Z,14.6
2023-05-03T16:12:40.531Z,14.6
2023-05-03T16:15:40.492Z,14.5
2023-05-03T16:18:40.497Z,14.6
2023-05-03T16:21:40.502Z,14.6
2023-05-03T16:24:40.501Z,14.6
2023-05-03T16:27:40.509Z,14.6
2023-05-03T16:30:40.512Z,14.6
2023-05-03T16:33:40.507Z,14.6
2023-05-03T16:36:40.512Z,14.6
2023-05-03T16:39:40.525Z,14.5
2023-05-03T16:42:40.524Z,14.5
2023-05-03T16:45:40.541Z,14.5
2023-05-03T16:48:40.536Z,14.5
2023-05-03T16:51:40.536Z,14.5
2023-05-03T16:54:40.549Z,14.6
2023-05-03T16:57:40.558Z,14.7
2023-05-03T17:00:40.560Z,14.7
2023-05-03T17:03:40.560Z,14.7
2023-05-03T17:06:40.561Z,14.8
2023-05-03T17:09:40.560Z,14.9
2023-05-03T17:12:40.579Z,15
2023-05-03T17:15:40.561Z,15.1
2023-05-03T17:18:40.646Z,15.1
2023-05-03T17:21:40.573Z,15.2
2023-05-03T17:24:40.573Z,15.1
2023-05-03T17:27:40.577Z,15.1
2023-05-03T17:30:40.585Z,15.1
2023-05-03T17:33:40.584Z,15.2
2023-05-03T17:36:40.587Z,15.1
2023-05-03T17:39:40.585Z,15
2023-05-03T17:42:40.589Z,14.8
2023-05-03T17:45:40.594Z,14.6
2023-05-03T17:48:40.639Z,14.4
2023-05-03T17:51:40.600Z,14.1
2023-05-03T17:54:40.612Z,13.9
2023-05-03T17:57:40.632Z,13.7
2023-05-03T18:00:40.615Z,13.4
2023-05-03T18:03:40.680Z,13.2
2023-05-03T18:06:40.618Z,13
2023-05-03T18:09:40.630Z,12.8
2023-05-03T18:12:40.646Z,12.7
2023-05-03T18:15:41.618Z,12.5
2023-05-03T18:18:40.640Z,12.3
2023-05-03T18:21:40.653Z,12.2
2023-05-03T18:24:40.652Z,12
2023-05-03T18:27:40.656Z,11.9
2023-05-03T18:30:40.664Z,11.7
2023-05-03T18:33:40.684Z,11.6
2023-05-03T18:36:40.674Z,11.5
2023-05-03T18:39:40.672Z,11.2
2023-05-03T18:42:40.657Z,11.1
2023-05-03T18:45:40.677Z,10.9
2023-05-03T18:48:40.668Z,10.7
2023-05-03T18:51:40.695Z,10.6
2023-05-03T18:54:40.683Z,10.5
2023-05-03T18:57:40.667Z,10.4
2023-05-03T19:00:40.709Z,10.3
2023-05-03T19:03:40.713Z,10.1
2023-05-03T19:06:40.688Z,10
2023-05-03T19:09:40.688Z,9.9
2023-05-03T19:12:40.795Z,9.7
2023-05-03T19:15:40.755Z,9.6
2023-05-03T19:18:40.773Z,9.5
2023-05-03T19:21:40.773Z,9.3
2023-05-03T19:24:40.765Z,9.3
2023-05-03T19:27:40.783Z,9.2
2023-05-03T19:30:40.810Z,9.1
2023-05-03T19:33:40.774Z,9
2023-05-03T19:36:40.782Z,9
2023-05-03T19:39:40.796Z,8.8
2023-05-03T19:42:40.805Z,8.7
2023-05-03T19:45:40.825Z,8.5
2023-05-03T19:48:40.813Z,8.4
2023-05-03T19:51:40.816Z,8.3
2023-05-03T19:54:40.813Z,8.3
2023-05-03T19:57:40.813Z,8.1
2023-05-03T20:00:40.836Z,8.1
2023-05-03T20:03:40.914Z,8
2023-05-03T20:06:40.832Z,7.9
2023-05-03T20:09:40.841Z,7.9
2023-05-03T20:12:40.842Z,7.9
2023-05-03T20:15:40.866Z,7.8
2023-05-03T20:18:41.104Z,7.7
2023-05-03T20:21:40.871Z,7.6
2023-05-03T20:24:40.865Z,7.5
2023-05-03T20:27:40.874Z,7.4
2023-05-03T20:30:40.914Z,7.3
2023-05-03T20:33:40.942Z,7.3
2023-05-03T20:36:40.891Z,7.3
2023-05-03T20:39:40.897Z,7.3
2023-05-03T20:42:40.904Z,7.3
2023-05-03T20:45:40.920Z,7.2
2023-05-03T20:48:40.916Z,7.1
2023-05-03T20:51:40.918Z,6.9
2023-05-03T20:54:41.427Z,6.8
2023-05-03T20:57:40.925Z,6.6
2023-05-03T21:00:40.933Z,6.5
2023-05-03T21:03:40.996Z,6.5
2023-05-03T21:06:42.043Z,6.4
2023-05-03T21:09:40.933Z,6.4
2023-05-03T21:12:40.955Z,6.5
2023-05-03T21:15:40.949Z,6.4
2023-05-03T21:18:40.961Z,6.3
2023-05-03T21:21:40.962Z,6.2
2023-05-03T21:24:40.957Z,6.1
2023-05-03T21:27:40.949Z,6
2023-05-03T21:30:40.975Z,5.9
2023-05-03T21:33:40.975Z,6
2023-05-03T21:36:40.965Z,5.9
2023-05-03T21:39:40.985Z,5.8
2023-05-03T21:42:40.974Z,5.8
2023-05-03T21:45:40.981Z,5.7
2023-05-03T21:48:41.002Z,5.7
2023-05-03T21:51:40.992Z,5.6
2023-05-03T21:54:41.007Z,5.5
2023-05-03T21:57:41.001Z,5.4
2023-05-03T22:00:40.997Z,5.3
2023-05-03T22:03:41.050Z,5.3
2023-05-03T22:06:41.010Z,5.2
2023-05-03T22:09:41.006Z,5.2
2023-05-03T22:12:41.041Z,5.3
2023-05-03T22:15:41.077Z,5.4
2023-05-03T22:18:41.013Z,5.4
2023-05-03T22:21:41.014Z,5.3
2023-05-03T22:24:41.085Z,5.2
2023-05-03T22:27:41.025Z,5.1
2023-05-03T22:30:41.052Z,4.9
2023-05-03T22:33:41.050Z,4.8
2023-05-03T22:36:41.047Z,4.8
2023-05-03T22:39:41.082Z,4.7
2023-05-03T22:42:41.058Z,4.7
2023-05-03T22:45:41.077Z,4.7
2023-05-03T22:48:41.065Z,4.8
2023-05-03T22:51:41.068Z,4.8
2023-05-03T22:54:41.091Z,4.6
2023-05-03T22:57:41.087Z,4.5
2023-05-03T23:00:41.083Z,4.4
2023-05-03T23:03:41.150Z,4.3
2023-05-03T23:06:41.106Z,4.4
2023-05-03T23:09:41.105Z,4.4
2023-05-03T23:12:41.128Z,4.3
2023-05-03T23:15:41.107Z,4.3
2023-05-03T23:18:41.123Z,4.3
2023-05-03T23:21:41.126Z,4.2
2023-05-03T23:24:41.144Z,4.2
2023-05-03T23:27:41.135Z,4.1
2023-05-03T23:30:41.148Z,4
2023-05-03T23:33:41.146Z,3.9
2023-05-03T23:36:41.179Z,3.8
2023-05-03T23:39:41.191Z,3.8
2023-05-03T23:42:41.173Z,3.9
2023-05-03T23:45:41.193Z,3.9
2023-05-03T23:48:41.178Z,3.9
2023-05-03T23:51:41.187Z,3.8
2023-05-03T23:54:41.199Z,3.7
2023-05-03T23:57:41.191Z,3.8
